.
WxDataArchive / Data Records for 2015-11-28
2015-11-27 November 2015 2015-11-29

Data Records for Saturday, 28 November 2015

Time	Temp	Chill	HIndex	Humid	Dewpt	 Wind 	HiWind	WindDir	Rain 	Barom
-----	----	-----	------	-----	-----	------	------	-------	-----	-----
00:00	38.2	38.2	38.2	93	36.4	1	3	45	0.00	30.300 
00:05	38.0	38.0	38.0	93	36.2	1	5	90	0.00	30.300 
00:10	38.0	38.0	38.0	93	36.2	1	9	45	0.00	30.300 
00:15	38.0	38.0	38.0	93	36.2	2	8	90	0.01	30.297 
00:20	37.9	37.9	37.9	93	36.1	3	7	112	0.00	30.297 
00:25	37.8	37.8	37.8	93	36.0	2	6	112	0.00	30.297 
00:30	37.8	37.8	37.8	93	36.0	2	6	90	0.00	30.297 
00:35	37.8	37.8	37.8	93	36.0	1	4	135	0.00	30.297 
00:40	37.8	37.8	37.8	93	36.0	1	9	90	0.01	30.297 
00:45	37.8	37.8	37.8	93	36.0	1	6	112	0.00	30.310 
00:50	37.6	37.6	37.6	93	35.8	1	5	22	0.00	30.310 
00:55	37.6	37.6	37.6	93	35.8	1	4	45	0.01	30.310 
01:00	37.6	37.6	37.6	93	35.8	1	4	45	0.00	30.294 
01:05	37.5	37.5	37.5	93	35.7	1	5	90	0.00	30.294 
01:10	37.3	37.3	37.3	93	35.5	1	3	45	0.00	30.294 
01:15	37.3	37.3	37.3	93	35.5	1	6	22	0.00	30.291 
01:20	37.2	37.2	37.2	93	35.4	1	5	45	0.00	30.291 
01:25	37.2	37.2	37.2	93	35.4	1	3	68	0.00	30.291 
01:30	37.2	37.2	37.2	93	35.4	1	5	68	0.00	30.299 
01:35	37.0	37.0	37.0	93	35.2	1	5	68	0.00	30.299 
01:40	37.0	37.0	37.0	93	35.2	1	4	90	0.00	30.299 
01:45	36.9	36.9	36.9	93	35.1	1	4	112	0.00	30.293 
01:50	36.8	36.8	36.8	93	35.0	2	13	45	0.00	30.293 
01:55	36.6	36.6	36.6	93	34.8	2	7	90	0.00	30.293 
02:00	36.5	36.5	36.5	93	34.7	1	4	68	0.00	30.294 
02:05	36.5	36.5	36.5	93	34.7	1	4	45	0.00	30.294 
02:10	36.5	36.5	36.5	93	34.7	1	4	45	0.00	30.294 
02:15	36.5	36.5	36.5	93	34.7	0	3	45	0.00	30.301 
02:20	36.5	36.5	36.5	93	34.7	1	4	90	0.00	30.301 
02:25	36.3	36.3	36.3	93	34.5	2	9	90	0.00	30.301 
02:30	36.2	36.2	36.2	93	34.4	2	6	90	0.00	30.301 
02:35	36.2	36.2	36.2	93	34.4	1	6	112	0.00	30.301 
02:40	36.2	36.2	36.2	93	34.4	1	3	112	0.00	30.301 
02:45	36.2	36.2	36.2	93	34.4	1	7	112	0.00	30.291 
02:50	36.2	36.2	36.2	93	34.4	2	5	90	0.00	30.291 
02:55	36.0	36.0	36.0	93	34.2	2	9	112	0.00	30.291 
03:00	36.0	36.0	36.0	93	34.2	2	7	90	0.00	30.294 
03:05	36.0	36.0	36.0	93	34.2	2	5	112	0.00	30.294 
03:10	36.0	36.0	36.0	93	34.2	1	5	90	0.00	30.294 
03:15	35.9	35.9	35.9	93	34.1	1	5	68	0.00	30.301 
03:20	35.9	35.9	35.9	93	34.1	1	6	45	0.00	30.301 
03:25	35.9	35.9	35.9	93	34.1	1	5	112	0.00	30.301 
03:30	35.9	35.9	35.9	93	34.1	1	5	112	0.00	30.303 
03:35	35.9	35.9	35.9	93	34.1	1	4	68	0.00	30.303 
03:40	35.9	35.9	35.9	93	34.1	0	3	45	0.00	30.303 
03:45	35.9	35.9	35.9	93	34.1	1	3	45	0.00	30.314 
03:50	35.8	35.8	35.8	93	34.0	1	4	0	0.00	30.314 
03:55	35.8	35.8	35.8	93	34.0	0	3	68	0.00	30.314 
04:00	35.8	35.8	35.8	93	34.0	1	5	90	0.00	30.313 
04:05	35.6	35.6	35.6	93	33.8	1	5	45	0.00	30.313 
04:10	35.5	35.5	35.5	93	33.7	0	3	45	0.00	30.313 
04:15	35.5	35.5	35.5	93	33.7	1	4	45	0.00	30.294 
04:20	35.3	35.3	35.3	93	33.5	1	5	112	0.00	30.294 
04:25	35.3	35.3	35.3	93	33.5	2	5	90	0.00	30.294 
04:30	35.2	35.2	35.2	93	33.4	1	5	22	0.00	30.291 
04:35	35.2	35.2	35.2	93	33.4	1	3	45	0.00	30.291 
04:40	35.2	35.2	35.2	93	33.4	0	2	45	0.00	30.291 
04:45	35.2	35.2	35.2	93	33.4	1	4	68	0.00	30.291 
04:50	35.3	35.3	35.3	93	33.5	1	4	90	0.00	30.291 
04:55	35.3	35.3	35.3	93	33.5	1	4	338	0.00	30.291 
05:00	35.3	35.3	35.3	93	33.5	1	3	68	0.00	30.307 
05:05	35.3	35.3	35.3	93	33.5	1	5	68	0.00	30.307 
05:10	35.2	35.2	35.2	93	33.4	1	4	45	0.00	30.307 
05:15	35.2	35.2	35.2	93	33.4	1	5	112	0.00	30.305 
05:20	35.2	35.2	35.2	93	33.4	1	3	112	0.00	30.305 
05:25	35.2	35.2	35.2	93	33.4	0	3	45	0.00	30.305 
05:30	35.2	35.2	35.2	93	33.4	1	3	90	0.00	30.297 
05:35	35.0	35.0	35.0	93	33.2	1	9	45	0.00	30.297 
05:40	35.0	35.0	35.0	93	33.2	2	5	22	0.00	30.297 
05:45	34.9	34.9	34.9	93	33.1	0	4	90	0.00	30.307 
05:50	35.0	35.0	35.0	92	32.9	1	4	90	0.00	30.307 
05:55	34.9	34.9	34.9	92	32.8	1	2	45	0.00	30.307 
06:00	34.9	34.9	34.9	92	32.8	0	3	45	0.00	30.316 
06:05	35.0	35.0	35.0	92	32.9	0	5	112	0.00	30.316 
06:10	35.0	35.0	35.0	92	32.9	0	3	68	0.00	30.316 
06:15	35.0	35.0	35.0	92	32.9	0	4	68	0.00	30.310 
06:20	35.0	35.0	35.0	92	32.9	1	3	22	0.00	30.310 
06:25	35.0	35.0	35.0	92	32.9	0	3	45	0.00	30.310 
06:30	35.0	35.0	35.0	92	32.9	0	1	45	0.00	30.312 
06:35	35.0	35.0	35.0	92	32.9	0	3	45	0.00	30.312 
06:40	35.0	35.0	35.0	92	32.9	0	3	90	0.00	30.312 
06:45	35.0	35.0	35.0	92	32.9	1	5	112	0.00	30.317 
06:50	35.0	35.0	35.0	92	32.9	1	6	45	0.00	30.317 
06:55	35.0	35.0	35.0	92	32.9	1	4	112	0.00	30.317 
07:00	35.0	35.0	35.0	92	32.9	1	4	112	0.00	30.328 
07:05	35.0	35.0	35.0	92	32.9	1	3	68	0.00	30.328 
07:10	35.0	35.0	35.0	92	32.9	0	4	45	0.00	30.328 
07:15	35.0	35.0	35.0	91	32.6	1	4	45	0.00	30.331 
07:20	35.0	35.0	35.0	91	32.6	0	3	68	0.00	30.331 
07:25	35.0	35.0	35.0	91	32.6	1	3	68	0.00	30.331 
07:30	35.0	35.0	35.0	91	32.6	1	4	45	0.00	30.326 
07:35	35.0	35.0	35.0	92	32.9	1	4	112	0.00	30.326 
07:40	35.0	35.0	35.0	91	32.6	0	3	90	0.00	30.326 
07:45	35.0	35.0	35.0	91	32.6	1	5	90	0.00	30.325 
07:50	34.9	34.9	34.9	91	32.5	0	3	45	0.00	30.325 
07:55	35.0	35.0	35.0	91	32.6	0	3	68	0.00	30.325 
08:00	34.9	34.9	34.9	91	32.5	1	5	68	0.00	30.324 
08:05	34.9	34.9	34.9	91	32.5	1	3	68	0.00	30.324 
08:10	34.9	34.9	34.9	92	32.8	0	3	45	0.00	30.324 
08:15	34.9	34.9	34.9	92	32.8	1	3	45	0.00	30.331 
08:20	34.9	34.9	34.9	92	32.8	1	4	68	0.00	30.331 
08:25	34.9	34.9	34.9	91	32.5	1	5	45	0.00	30.331 
08:30	34.7	34.7	34.7	91	32.3	1	5	68	0.00	30.330 
08:35	34.7	34.7	34.7	91	32.3	1	4	68	0.00	30.330 
08:40	34.7	34.7	34.7	91	32.3	1	4	112	0.00	30.330 
08:45	34.7	34.7	34.7	91	32.3	1	5	45	0.00	30.326 
08:50	34.7	34.7	34.7	91	32.3	1	4	68	0.00	30.326 
08:55	34.9	34.9	34.9	91	32.5	0	2	68	0.00	30.326 
09:00	34.9	34.9	34.9	91	32.5	1	5	45	0.01	30.333 
09:05	34.9	34.9	34.9	91	32.5	0	3	22	0.00	30.333 
09:10	34.9	34.9	34.9	91	32.5	1	3	112	0.00	30.333 
09:15	34.9	34.9	34.9	91	32.5	0	4	90	0.00	30.326 
09:20	34.9	34.9	34.9	91	32.5	1	4	22	0.00	30.326 
09:25	34.9	34.9	34.9	91	32.5	1	3	68	0.00	30.326 
09:30	34.9	34.9	34.9	91	32.5	0	3	45	0.00	30.329 
09:35	34.9	34.9	34.9	91	32.5	0	1	45	0.00	30.329 
09:40	35.0	35.0	35.0	91	32.6	0	3	45	0.00	30.329 
09:45	35.2	35.2	35.2	91	32.8	0	3	45	0.00	30.328 
09:50	35.2	35.2	35.2	92	33.1	1	4	45	0.00	30.328 
09:55	35.2	35.2	35.2	92	33.1	0	1	45	0.00	30.328 
10:00	35.3	35.3	35.3	92	33.2	0	3	45	0.00	30.338 
10:05	35.3	35.3	35.3	92	33.2	1	5	112	0.00	30.338 
10:10	35.3	35.3	35.3	92	33.2	0	2	135	0.00	30.338 
10:15	35.3	35.3	35.3	92	33.2	0	2	68	0.00	30.334 
10:20	35.3	35.3	35.3	92	33.2	0	2	68	0.00	30.334 
10:25	35.3	35.3	35.3	92	33.2	0	4	68	0.00	30.334 
10:30	35.3	35.3	35.3	92	33.2	0	3	68	0.00	30.330 
10:35	35.3	35.3	35.3	92	33.2	0	4	68	0.00	30.330 
10:40	35.5	35.5	35.5	92	33.4	0	3	68	0.00	30.330 
10:45	35.5	35.5	35.5	91	33.1	0	4	112	0.00	30.331 
10:50	35.5	35.5	35.5	91	33.1	1	5	112	0.00	30.331 
10:55	35.5	35.5	35.5	91	33.1	1	4	45	0.00	30.331 
11:00	35.5	35.5	35.5	91	33.1	0	2	45	0.00	30.331 
11:05	35.6	35.6	35.6	91	33.2	0	2	45	0.00	30.331 
11:10	35.6	35.6	35.6	91	33.2	1	4	90	0.00	30.331 
11:15	35.6	35.6	35.6	91	33.2	0	3	90	0.00	30.328 
11:20	35.8	35.8	35.8	91	33.4	1	4	90	0.00	30.328 
11:25	35.8	35.8	35.8	91	33.4	1	5	45	0.00	30.328 
11:30	35.9	35.9	35.9	90	33.3	0	2	112	0.00	30.328 
11:35	35.9	35.9	35.9	90	33.3	1	6	45	0.00	30.328 
11:40	36.0	36.0	36.0	90	33.4	1	4	90	0.00	30.328 
11:45	36.0	36.0	36.0	90	33.4	1	5	112	0.00	30.334 
11:50	36.2	36.2	36.2	90	33.6	1	4	45	0.00	30.334 
11:55	36.2	36.2	36.2	89	33.3	1	4	90	0.00	30.334 
12:00	36.2	36.2	36.2	89	33.3	0	4	180	0.00	30.330 
12:05	36.5	36.5	36.5	89	33.6	1	4	68	0.00	30.330 
12:10	36.5	36.5	36.5	89	33.6	0	2	68	0.00	30.330 
12:15	36.5	36.5	36.5	89	33.6	0	4	112	0.00	30.323 
12:20	36.6	36.6	36.6	89	33.7	1	3	112	0.00	30.323 
12:25	36.6	36.6	36.6	88	33.4	1	3	292	0.00	30.323 
12:30	36.6	36.6	36.6	88	33.4	1	4	68	0.00	30.316 
12:35	36.6	36.6	36.6	88	33.4	1	4	45	0.00	30.316 
12:40	36.8	36.8	36.8	88	33.6	1	5	112	0.00	30.316 
12:45	36.8	36.8	36.8	88	33.6	1	3	112	0.00	30.316 
12:50	36.9	36.9	36.9	88	33.7	1	3	45	0.00	30.316 
12:55	36.9	36.9	36.9	88	33.7	1	4	68	0.00	30.316 
13:00	36.9	36.9	36.9	87	33.4	1	4	90	0.00	30.305 
13:05	37.0	37.0	37.0	87	33.5	0	3	90	0.00	30.305 
13:10	37.0	37.0	37.0	87	33.5	1	6	90	0.00	30.305 
13:15	37.2	37.2	37.2	87	33.7	1	3	90	0.00	30.295 
13:20	37.3	37.3	37.3	87	33.8	1	4	90	0.00	30.295 
13:25	37.3	37.3	37.3	87	33.8	1	4	45	0.00	30.295 
13:30	37.3	37.3	37.3	86	33.5	1	4	68	0.00	30.296 
13:35	37.5	37.5	37.5	87	34.0	0	2	90	0.00	30.296 
13:40	37.5	37.5	37.5	86	33.7	0	3	90	0.00	30.296 
13:45	37.5	37.5	37.5	86	33.7	0	3	90	0.00	30.279 
13:50	37.5	37.5	37.5	86	33.7	1	4	68	0.00	30.279 
13:55	37.6	37.6	37.6	86	33.8	0	3	90	0.00	30.279 
14:00	37.6	37.6	37.6	86	33.8	2	7	112	0.00	30.267 
14:05	37.6	37.6	37.6	86	33.8	1	5	90	0.00	30.267 
14:10	37.6	37.6	37.6	85	33.5	1	3	45	0.00	30.267 
14:15	37.8	37.8	37.8	85	33.7	1	4	135	0.00	30.275 
14:20	37.8	37.8	37.8	85	33.7	1	4	68	0.00	30.275 
14:25	37.8	37.8	37.8	85	33.7	0	3	112	0.00	30.275 
14:30	37.8	37.8	37.8	85	33.7	1	5	68	0.00	30.273 
14:35	37.8	37.8	37.8	85	33.7	1	4	112	0.00	30.273 
14:40	37.6	37.6	37.6	84	33.2	1	5	112	0.00	30.273 
14:45	37.6	37.6	37.6	84	33.2	1	4	90	0.00	30.269 
14:50	37.6	37.6	37.6	84	33.2	1	6	90	0.00	30.269 
14:55	37.8	37.8	37.8	84	33.4	1	4	90	0.00	30.269 
15:00	37.8	37.8	37.8	84	33.4	1	5	90	0.00	30.280 
15:05	37.8	37.8	37.8	84	33.4	0	3	90	0.00	30.280 
15:10	37.9	37.9	37.9	84	33.5	1	3	90	0.00	30.280 
15:15	37.9	37.9	37.9	84	33.5	0	4	90	0.00	30.279 
15:20	37.8	37.8	37.8	84	33.4	0	2	90	0.00	30.279 
15:25	37.8	37.8	37.8	84	33.4	0	3	68	0.00	30.279 
15:30	37.8	37.8	37.8	84	33.4	0	2	68	0.00	30.281 
15:35	37.8	37.8	37.8	84	33.4	1	3	68	0.00	30.281 
15:40	37.6	37.6	37.6	84	33.2	1	3	68	0.00	30.281 
15:45	37.6	37.6	37.6	84	33.2	0	3	45	0.00	30.283 
15:50	37.6	37.6	37.6	84	33.2	1	4	45	0.00	30.283 
15:55	37.6	37.6	37.6	84	33.2	1	4	68	0.00	30.283 
16:00	37.6	37.6	37.6	84	33.2	0	2	22	0.00	30.282 
16:05	37.6	37.6	37.6	84	33.2	1	4	22	0.00	30.282 
16:10	37.6	37.6	37.6	84	33.2	1	3	45	0.00	30.282 
16:15	37.5	37.5	37.5	84	33.1	0	3	90	0.00	30.283 
16:20	37.5	37.5	37.5	84	33.1	1	3	68	0.00	30.283 
16:25	37.5	37.5	37.5	84	33.1	1	3	68	0.00	30.283 
16:30	37.5	37.5	37.5	84	33.1	1	3	90	0.00	30.287 
16:35	37.5	37.5	37.5	84	33.1	0	2	90	0.00	30.287 
16:40	37.5	37.5	37.5	84	33.1	0	2	90	0.00	30.287 
16:45	37.5	37.5	37.5	85	33.4	0	2	90	0.00	30.298 
16:50	37.5	37.5	37.5	84	33.1	0	3	45	0.00	30.298 
16:55	37.5	37.5	37.5	84	33.1	1	3	22	0.00	30.298 
17:00	37.5	37.5	37.5	84	33.1	0	2	22	0.00	30.297 
17:05	37.5	37.5	37.5	84	33.1	0	2	22	0.00	30.297 
17:10	37.3	37.3	37.3	84	32.9	1	4	45	0.00	30.297 
17:15	37.3	37.3	37.3	84	32.9	1	4	135	0.00	30.299 
17:20	37.3	37.3	37.3	84	32.9	0	3	68	0.00	30.299 
17:25	37.3	37.3	37.3	84	32.9	0	2	68	0.00	30.299 
17:30	37.3	37.3	37.3	84	32.9	0	4	135	0.00	30.301 
17:35	37.2	37.2	37.2	84	32.8	1	4	90	0.00	30.301 
17:40	37.2	37.2	37.2	83	32.5	1	5	90	0.00	30.301 
17:45	37.2	37.2	37.2	83	32.5	0	3	90	0.00	30.305 
17:50	37.0	37.0	37.0	83	32.3	0	3	90	0.00	30.305 
17:55	37.0	37.0	37.0	83	32.3	0	2	90	0.00	30.305 
18:00	37.0	37.0	37.0	83	32.3	0	1	90	0.00	30.307 
18:05	37.0	37.0	37.0	83	32.3	0	2	90	0.00	30.307 
18:10	37.0	37.0	37.0	83	32.3	1	4	90	0.00	30.307 
18:15	37.0	37.0	37.0	83	32.3	1	3	68	0.00	30.297 
18:20	37.0	37.0	37.0	84	32.6	0	2	68	0.00	30.297 
18:25	36.9	36.9	36.9	84	32.5	0	2	68	0.00	30.297 
18:30	36.9	36.9	36.9	84	32.5	0	2	68	0.00	30.296 
18:35	36.9	36.9	36.9	84	32.5	0	3	68	0.00	30.296 
18:40	36.9	36.9	36.9	84	32.5	0	2	68	0.00	30.296 
18:45	36.9	36.9	36.9	84	32.5	0	2	68	0.00	30.298 
18:50	36.9	36.9	36.9	84	32.5	0	2	90	0.00	30.298 
18:55	36.9	36.9	36.9	84	32.5	0	2	90	0.00	30.298 
19:00	36.9	36.9	36.9	84	32.5	0	2	90	0.00	30.301 
19:05	36.9	36.9	36.9	84	32.5	0	1	90	0.00	30.301 
19:10	36.8	36.8	36.8	84	32.4	0	1	90	0.00	30.301 
19:15	36.8	36.8	36.8	84	32.4	0	1	90	0.00	30.299 
19:20	36.8	36.8	36.8	84	32.4	0	1	90	0.00	30.299 
19:25	36.8	36.8	36.8	84	32.4	0	1	90	0.00	30.299 
19:30	36.8	36.8	36.8	84	32.4	0	2	90	0.00	30.309 
19:35	36.8	36.8	36.8	84	32.4	0	3	90	0.00	30.309 
19:40	36.8	36.8	36.8	84	32.4	0	1	90	0.00	30.309 
19:45	36.8	36.8	36.8	84	32.4	0	1	90	0.00	30.317 
19:50	36.6	36.6	36.6	84	32.2	0	1	90	0.00	30.317 
19:55	36.6	36.6	36.6	84	32.2	0	3	90	0.00	30.317 
20:00	36.6	36.6	36.6	84	32.2	0	1	90	0.00	30.300 
20:05	36.5	36.5	36.5	84	32.1	0	2	90	0.00	30.300 
20:10	36.5	36.5	36.5	84	32.1	1	2	90	0.00	30.300 
20:15	36.5	36.5	36.5	84	32.1	0	2	68	0.00	30.298 
20:20	36.5	36.5	36.5	84	32.1	0	2	68	0.00	30.298 
20:25	36.5	36.5	36.5	84	32.1	0	3	68	0.00	30.298 
20:30	36.3	36.3	36.3	84	31.9	0	5	68	0.00	30.300 
20:35	36.3	36.3	36.3	84	31.9	0	3	338	0.00	30.300 
20:40	36.2	36.2	36.2	84	31.8	0	2	90	0.00	30.300 
20:45	36.0	36.0	36.0	84	31.6	0	2	68	0.00	30.324 
20:50	36.0	36.0	36.0	84	31.6	0	1	68	0.00	30.324 
20:55	35.9	35.9	35.9	84	31.5	0	2	68	0.00	30.324 
21:00	35.9	35.9	35.9	84	31.5	0	1	68	0.00	30.317 
21:05	35.9	35.9	35.9	84	31.5	0	2	45	0.00	30.317 
21:10	35.8	35.8	35.8	84	31.4	0	1	45	0.00	30.317 
21:15	35.6	35.6	35.6	85	31.5	0	2	45	0.00	30.311 
21:20	35.5	35.5	35.5	85	31.4	1	3	45	0.00	30.311 
21:25	35.3	35.3	35.3	85	31.2	1	3	68	0.00	30.311 
21:30	35.2	35.2	35.2	85	31.2	0	1	68	0.00	30.305 
21:35	35.2	35.2	35.2	85	31.2	0	4	68	0.00	30.305 
21:40	35.0	35.0	35.0	86	31.2	0	5	22	0.00	30.305 
21:45	34.9	34.9	34.9	86	31.1	1	4	45	0.00	30.307 
21:50	34.9	34.9	34.9	85	30.9	0	2	68	0.00	30.307 
21:55	34.7	34.7	34.7	85	30.7	1	4	90	0.00	30.307 
22:00	34.7	34.7	34.7	85	30.7	0	3	45	0.00	30.312 
22:05	34.7	34.7	34.7	85	30.7	0	2	45	0.00	30.312 
22:10	34.6	34.6	34.6	85	30.6	0	1	45	0.00	30.312 
22:15	34.6	34.6	34.6	85	30.6	0	3	45	0.00	30.306 
22:20	34.6	34.6	34.6	85	30.6	0	3	45	0.00	30.306 
22:25	34.4	34.4	34.4	85	30.4	0	2	45	0.00	30.306 
22:30	34.3	34.3	34.3	85	30.3	0	5	45	0.00	30.304 
22:35	34.3	34.3	34.3	85	30.3	1	4	112	0.00	30.304 
22:40	34.1	34.1	34.1	85	30.1	1	3	112	0.00	30.304 
22:45	34.1	34.1	34.1	85	30.1	0	3	112	0.00	30.304 
22:50	34.1	34.1	34.1	85	30.1	0	2	112	0.00	30.304 
22:55	34.1	34.1	34.1	84	29.8	0	2	112	0.00	30.304 
23:00	34.1	34.1	34.1	84	29.8	0	2	112	0.00	30.305 
23:05	34.0	34.0	34.0	84	29.7	0	2	45	0.00	30.305 
23:10	34.0	34.0	34.0	84	29.7	0	3	45	0.00	30.305 
23:15	34.0	34.0	34.0	84	29.7	0	1	45	0.00	30.305 
23:20	34.0	34.0	34.0	84	29.7	0	1	45	0.00	30.305 
23:25	34.0	34.0	34.0	84	29.7	0	2	45	0.00	30.305 
23:30	34.0	34.0	34.0	84	29.7	0	3	45	0.00	30.319 
23:35	34.0	34.0	34.0	84	29.7	0	3	45	0.00	30.319 
23:40	33.8	33.8	33.8	84	29.5	0	3	45	0.00	30.319 
23:45	33.8	33.8	33.8	84	29.5	0	1	45	0.00	30.318 
23:50	34.0	34.0	34.0	84	29.7	0	3	45	0.00	30.318 
23:55	34.0	34.0	34.0	84	29.7	0	2	68	0.00	30.318 

CoCoRaHS
IN-AL-39
A2 Web Hosting
Creative Commons License
GoDaddy
search engine by freefind advanced

loaded 2018-11-17 05:39:12 • last modified 2010-11-18 10:43:29
Privacy PolicyDisclaimer
• wx.awcolley.com is powered by PmWiki v.2002016 •
• all content (unless otherwise noted) © 2018 A W Colley